createdAt,value
2023-02-19T00:00:20.597Z,19.48
2023-02-19T00:10:23.126Z,18.00
2023-02-19T00:20:25.723Z,17.93
2023-02-19T00:30:28.226Z,17.08
2023-02-19T00:40:31.157Z,16.50
2023-02-19T00:50:34.829Z,17.43
2023-02-19T01:00:37.252Z,17.40
2023-02-19T01:10:39.849Z,17.13
2023-02-19T01:20:44.613Z,18.43
2023-02-19T01:30:47.113Z,16.93
2023-02-19T01:41:00.820Z,18.33
2023-02-19T01:51:15.067Z,16.73
2023-02-19T02:01:17.878Z,18.40
2023-02-19T02:11:21.540Z,17.73
2023-02-19T02:21:53.520Z,16.40
2023-02-19T02:32:08.054Z,15.37
2023-02-19T02:42:28.846Z,15.33
2023-02-19T02:53:10.912Z,15.55
2023-02-19T03:03:17.407Z,16.77
2023-02-19T03:13:54.493Z,13.00
2023-02-19T03:24:16.351Z,14.77
2023-02-19T03:34:26.259Z,14.07
2023-02-19T03:44:40.937Z,12.53
2023-02-19T03:54:43.821Z,13.48
2023-02-19T04:04:56.633Z,12.73
2023-02-19T04:15:10.297Z,13.77
2023-02-19T04:25:13.096Z,13.30
2023-02-19T04:35:15.614Z,15.10
2023-02-19T04:45:18.297Z,13.23
2023-02-19T04:55:20.912Z,13.90
2023-02-19T05:05:23.436Z,15.52
2023-02-19T05:15:26.081Z,15.43
2023-02-19T05:25:28.853Z,14.57
2023-02-19T05:35:31.442Z,14.82
2023-02-19T05:45:35.450Z,16.63
2023-02-19T05:55:38.080Z,14.50
2023-02-19T06:05:40.608Z,16.23
2023-02-19T06:15:43.409Z,16.08
2023-02-19T06:25:46.096Z,17.50
2023-02-19T06:35:48.692Z,15.93
2023-02-19T06:45:51.185Z,18.35
2023-02-19T06:56:08.529Z,14.70
2023-02-19T07:06:11.096Z,16.27
2023-02-19T07:16:14.509Z,15.60
2023-02-19T07:26:19.173Z,15.53
2023-02-19T07:36:23.790Z,18.13
2023-02-19T07:46:27.030Z,15.80
2023-02-19T07:56:29.536Z,23.38
2023-02-19T08:06:31.977Z,23.10
2023-02-19T08:16:43.074Z,18.43
2023-02-19T08:26:46.062Z,16.95
2023-02-19T08:36:48.581Z,17.43
2023-02-19T08:46:51.011Z,17.00
2023-02-19T08:56:53.484Z,15.23
2023-02-19T09:06:56.060Z,17.10
2023-02-19T09:16:58.496Z,18.40
2023-02-19T09:27:01.505Z,15.83
2023-02-19T09:37:03.992Z,15.13
2023-02-19T09:47:15.558Z,14.80
2023-02-19T09:57:21.374Z,14.20
2023-02-19T10:07:45.417Z,15.15
2023-02-19T10:17:48.273Z,17.10
2023-02-19T10:27:50.833Z,15.83
2023-02-19T10:37:53.958Z,14.60
2023-02-19T10:47:57.025Z,14.10
2023-02-19T10:58:21.847Z,13.90
2023-02-19T11:08:24.840Z,14.07
2023-02-19T11:18:31.155Z,13.32
2023-02-19T11:28:39.678Z,13.73
2023-02-19T11:38:42.805Z,13.20
2023-02-19T11:48:59.455Z,14.38
2023-02-19T11:59:03.104Z,11.87
2023-02-19T12:09:26.441Z,11.10
2023-02-19T12:20:06.963Z,9.68
2023-02-19T12:30:27.033Z,11.43
2023-02-19T12:40:59.286Z,10.20
2023-02-19T12:51:10.923Z,13.80
2023-02-19T13:01:20.958Z,10.60
2023-02-19T13:11:32.657Z,6.60
2023-02-19T13:21:56.391Z,3.30
2023-02-19T13:32:23.411Z,4.77
2023-02-19T13:42:34.352Z,6.77
2023-02-19T13:52:39.529Z,6.50
2023-02-19T14:02:42.327Z,0.80
2023-02-19T14:12:45.116Z,0.23
2023-02-19T14:22:47.870Z,0.20
2023-02-19T14:32:54.518Z,0.28
2023-02-19T14:43:01.574Z,0.30
2023-02-19T14:53:07.303Z,0.20
2023-02-19T15:03:42.368Z,0.30
2023-02-19T15:14:07.137Z,0.30
2023-02-19T15:24:13.895Z,0.83
2023-02-19T15:34:28.404Z,1.30
2023-02-19T15:44:38.088Z,0.70
2023-02-19T15:54:55.605Z,0.70
2023-02-19T16:04:58.614Z,4.17
2023-02-19T16:15:13.261Z,4.80
2023-02-19T16:25:28.139Z,2.70
2023-02-19T16:35:39.939Z,1.83
2023-02-19T16:45:47.608Z,2.85
2023-02-19T16:55:51.149Z,3.77
2023-02-19T17:05:54.258Z,1.97
2023-02-19T17:15:58.150Z,1.73
2023-02-19T17:26:00.801Z,1.57
2023-02-19T17:36:03.625Z,7.77
2023-02-19T17:46:06.407Z,7.23
2023-02-19T17:56:10.440Z,7.05
2023-02-19T18:06:13.677Z,1.13
2023-02-19T18:16:19.709Z,0.50
2023-02-19T18:26:22.573Z,0.70
2023-02-19T18:36:25.369Z,1.00
2023-02-19T18:46:28.300Z,0.70
2023-02-19T18:56:31.137Z,0.30
2023-02-19T19:06:35.873Z,0.20
2023-02-19T19:16:39.047Z,0.50
2023-02-19T19:26:46.442Z,0.23
2023-02-19T19:36:49.563Z,0.20
2023-02-19T19:46:55.447Z,2.47
2023-02-19T19:56:58.244Z,0.30
2023-02-19T20:07:01.843Z,7.28
2023-02-19T20:17:06.315Z,1.10
2023-02-19T20:27:09.138Z,0.20
2023-02-19T20:37:11.985Z,2.92
2023-02-19T20:47:14.956Z,0.27
2023-02-19T20:57:17.901Z,0.30
2023-02-19T21:07:20.865Z,0.10
2023-02-19T21:17:23.669Z,0.20
2023-02-19T21:27:26.324Z,0.30
2023-02-19T21:37:28.947Z,0.10
2023-02-19T21:47:31.712Z,0.80
2023-02-19T21:57:34.231Z,0.20
2023-02-19T22:07:37.444Z,0.60
2023-02-19T22:17:43.143Z,0.47
2023-02-19T22:27:45.785Z,0.20
2023-02-19T22:37:49.673Z,0.20
2023-02-19T22:47:56.087Z,0.40
2023-02-19T22:57:58.642Z,0.38
2023-02-19T23:08:01.224Z,1.60
2023-02-19T23:18:08.387Z,1.90
2023-02-19T23:28:11.128Z,2.00
2023-02-19T23:38:13.736Z,1.70
2023-02-19T23:48:16.992Z,2.07
2023-02-19T23:58:19.508Z,1.63
